createdAt,value
2019-02-06T00:01:08.833Z,19.48
2019-02-06T00:02:12.599Z,19.80
2019-02-06T00:03:17.940Z,19.25
2019-02-06T00:04:21.637Z,19.55
2019-02-06T00:05:25.362Z,19.50
2019-02-06T00:06:29.137Z,18.85
2019-02-06T00:07:32.875Z,19.57
2019-02-06T00:08:36.965Z,19.32
2019-02-06T00:09:40.756Z,19.60
2019-02-06T00:10:44.512Z,18.85
2019-02-06T00:11:48.157Z,20.50
2019-02-06T00:12:51.739Z,20.02
2019-02-06T00:13:55.445Z,19.90
2019-02-06T00:14:59.070Z,20.00
2019-02-06T00:16:02.793Z,19.70
2019-02-06T00:17:06.480Z,19.85
2019-02-06T00:18:10.258Z,19.65
2019-02-06T00:19:13.965Z,21.05
2019-02-06T00:20:17.736Z,20.50
2019-02-06T00:21:21.790Z,21.05
2019-02-06T00:22:25.527Z,20.95
2019-02-06T00:23:29.231Z,22.42
2019-02-06T00:24:32.866Z,21.52
2019-02-06T00:25:36.543Z,21.33
2019-02-06T00:26:40.137Z,21.75
2019-02-06T00:27:43.803Z,20.62
2019-02-06T00:28:47.549Z,21.82
2019-02-06T00:29:51.148Z,20.90
2019-02-06T00:30:54.850Z,20.80
2019-02-06T00:31:58.536Z,22.17
2019-02-06T00:33:02.329Z,21.50
2019-02-06T00:34:06.002Z,21.48
2019-02-06T00:35:09.998Z,21.05
2019-02-06T00:36:13.787Z,20.17
2019-02-06T00:37:17.407Z,21.85
2019-02-06T00:38:21.179Z,21.57
2019-02-06T00:39:24.982Z,21.30
2019-02-06T00:40:28.644Z,20.62
2019-02-06T00:41:32.314Z,20.75
2019-02-06T00:42:35.954Z,21.02
2019-02-06T00:43:39.685Z,20.35
2019-02-06T00:44:43.290Z,21.10
2019-02-06T00:45:46.954Z,20.60
2019-02-06T00:46:50.642Z,20.75
2019-02-06T00:47:54.329Z,19.50
2019-02-06T00:48:58.209Z,20.75
2019-02-06T00:50:02.206Z,21.30
2019-02-06T00:51:06.050Z,22.30
2019-02-06T00:52:09.727Z,20.72
2019-02-06T00:53:13.439Z,20.62
2019-02-06T00:54:17.138Z,20.65
2019-02-06T00:55:20.852Z,20.77
2019-02-06T00:56:24.434Z,20.45
2019-02-06T00:57:28.134Z,20.80
2019-02-06T00:58:31.877Z,21.48
2019-02-06T00:59:35.586Z,21.00
2019-02-06T01:00:39.374Z,21.00
2019-02-06T01:01:43.182Z,19.85
2019-02-06T01:02:47.313Z,20.27
2019-02-06T01:03:51.250Z,21.05
2019-02-06T01:04:54.828Z,20.50
2019-02-06T01:05:58.534Z,21.17
2019-02-06T01:07:02.252Z,19.27
2019-02-06T01:08:06.010Z,21.87
2019-02-06T01:09:10.545Z,20.62
2019-02-06T01:10:21.882Z,20.85
2019-02-06T01:11:25.653Z,22.10
2019-02-06T01:12:29.395Z,20.45
2019-02-06T01:13:33.013Z,20.25
2019-02-06T01:14:36.765Z,22.87
2019-02-06T01:15:40.594Z,23.18
2019-02-06T01:16:44.261Z,21.70
2019-02-06T01:17:48.053Z,20.92
2019-02-06T01:18:52.002Z,23.27
2019-02-06T01:19:55.621Z,20.92
2019-02-06T01:20:59.331Z,21.48
2019-02-06T01:22:03.057Z,23.27
2019-02-06T01:23:06.766Z,21.07
2019-02-06T01:24:10.432Z,23.10
2019-02-06T01:25:16.621Z,20.35
2019-02-06T01:26:20.394Z,21.93
2019-02-06T01:27:24.104Z,21.80
2019-02-06T01:28:27.772Z,21.15
2019-02-06T01:29:31.420Z,21.82
2019-02-06T01:30:39.248Z,22.10
2019-02-06T01:31:42.941Z,23.00
2019-02-06T01:32:46.657Z,20.65
2019-02-06T01:33:50.668Z,20.05
2019-02-06T01:34:54.408Z,21.70
2019-02-06T01:35:58.146Z,20.55
2019-02-06T01:37:01.894Z,22.05
2019-02-06T01:38:05.734Z,20.82
2019-02-06T01:39:11.071Z,20.00
2019-02-06T01:40:18.022Z,19.85
2019-02-06T01:41:21.684Z,23.07
2019-02-06T01:42:25.415Z,22.30
2019-02-06T01:43:29.088Z,22.17
2019-02-06T01:44:32.814Z,23.87
2019-02-06T01:45:36.466Z,24.05
2019-02-06T01:46:40.241Z,25.43
2019-02-06T01:47:44.244Z,24.30
2019-02-06T01:48:48.126Z,25.57
2019-02-06T01:49:51.736Z,24.35
2019-02-06T01:50:55.359Z,24.87
2019-02-06T01:51:59.150Z,25.37
2019-02-06T01:53:02.852Z,23.90
2019-02-06T01:54:06.603Z,25.50
2019-02-06T01:55:12.109Z,24.82
2019-02-06T01:56:15.815Z,25.50
2019-02-06T01:57:19.533Z,23.92
2019-02-06T01:58:23.240Z,24.67
2019-02-06T01:59:26.862Z,24.25
2019-02-06T02:00:30.695Z,26.17
2019-02-06T02:01:34.711Z,25.97
2019-02-06T02:02:38.903Z,26.33
2019-02-06T02:03:42.740Z,26.40
2019-02-06T02:04:46.466Z,26.80
2019-02-06T02:06:01.427Z,25.82
2019-02-06T02:06:55.670Z,24.98
2019-02-06T02:07:59.416Z,25.75
2019-02-06T02:09:04.750Z,25.23
2019-02-06T02:10:10.475Z,26.35
2019-02-06T02:11:14.119Z,24.00
2019-02-06T02:12:17.726Z,25.10
2019-02-06T02:13:21.525Z,24.18
2019-02-06T02:14:25.226Z,25.35
2019-02-06T02:15:28.915Z,26.10
2019-02-06T02:16:32.887Z,23.75
2019-02-06T02:17:36.999Z,24.70
2019-02-06T02:18:40.603Z,23.32
2019-02-06T02:19:44.246Z,24.43
2019-02-06T02:20:47.862Z,23.35
2019-02-06T02:21:51.490Z,25.10
2019-02-06T02:22:55.241Z,23.15
2019-02-06T02:23:58.923Z,23.62
2019-02-06T02:25:02.551Z,23.22
2019-02-06T02:26:06.163Z,23.77
2019-02-06T02:27:09.863Z,24.37
2019-02-06T02:28:14.499Z,25.08
2019-02-06T02:29:18.114Z,23.50
2019-02-06T02:30:27.937Z,24.35
2019-02-06T02:31:31.631Z,22.13
2019-02-06T02:32:35.656Z,24.82
2019-02-06T02:33:39.559Z,25.15
2019-02-06T02:34:43.250Z,24.92
2019-02-06T02:35:46.948Z,24.87
2019-02-06T02:36:50.587Z,23.98
2019-02-06T02:37:54.328Z,25.52
2019-02-06T02:38:57.944Z,23.30
2019-02-06T02:40:01.729Z,22.87
2019-02-06T02:41:05.468Z,23.00
2019-02-06T02:42:09.226Z,24.63
2019-02-06T02:43:12.975Z,25.92
2019-02-06T02:44:16.548Z,24.98
2019-02-06T02:45:20.837Z,24.10
2019-02-06T02:46:24.438Z,22.85
2019-02-06T02:47:28.364Z,23.95
2019-02-06T02:48:32.074Z,22.27
2019-02-06T02:49:35.997Z,23.50
2019-02-06T02:50:39.681Z,22.90
2019-02-06T02:51:44.439Z,22.62
2019-02-06T02:52:48.166Z,23.27
2019-02-06T02:53:51.885Z,23.40
2019-02-06T02:54:55.559Z,24.70
2019-02-06T02:55:59.255Z,23.52
2019-02-06T02:57:02.931Z,24.23
2019-02-06T02:58:06.707Z,23.90
2019-02-06T02:59:10.313Z,22.13
2019-02-06T03:00:22.155Z,23.20
2019-02-06T03:01:30.256Z,23.40
2019-02-06T03:02:41.044Z,22.80
2019-02-06T03:03:49.080Z,22.35
2019-02-06T03:04:52.964Z,21.37
2019-02-06T03:05:56.924Z,22.22
2019-02-06T03:07:00.927Z,21.45
2019-02-06T03:08:04.915Z,21.82
2019-02-06T03:09:11.058Z,21.97
2019-02-06T03:10:14.909Z,21.62
2019-02-06T03:11:18.619Z,22.30
2019-02-06T03:12:22.199Z,22.27
2019-02-06T03:13:25.841Z,21.07
2019-02-06T03:14:29.535Z,24.15
2019-02-06T03:15:33.144Z,21.73
2019-02-06T03:16:36.721Z,21.25
2019-02-06T03:17:40.328Z,23.40
2019-02-06T03:18:43.960Z,22.93
2019-02-06T03:19:47.547Z,23.05
2019-02-06T03:20:51.438Z,22.25
2019-02-06T03:21:55.098Z,23.20
2019-02-06T03:22:58.752Z,21.87
2019-02-06T03:24:02.396Z,23.07
2019-02-06T03:25:09.012Z,23.95
2019-02-06T03:26:12.659Z,22.90
2019-02-06T03:27:16.281Z,23.70
2019-02-06T03:28:19.940Z,23.20
2019-02-06T03:29:23.547Z,22.50
2019-02-06T03:30:27.221Z,22.22
2019-02-06T03:31:30.908Z,23.73
2019-02-06T03:32:34.529Z,23.47
2019-02-06T03:33:38.542Z,24.72
2019-02-06T03:34:42.521Z,23.73
2019-02-06T03:35:46.523Z,24.27
2019-02-06T03:36:50.202Z,24.98
2019-02-06T03:37:53.820Z,24.30
2019-02-06T03:38:57.522Z,23.87
2019-02-06T03:40:01.170Z,25.85
2019-02-06T03:41:05.385Z,23.95
2019-02-06T03:42:09.003Z,25.25
2019-02-06T03:43:12.699Z,24.45
2019-02-06T03:44:16.312Z,24.95
2019-02-06T03:45:19.953Z,26.23
2019-02-06T03:46:23.565Z,24.72
2019-02-06T03:47:27.165Z,26.60
2019-02-06T03:48:31.042Z,25.82
2019-02-06T03:49:34.694Z,25.00
2019-02-06T03:50:38.408Z,23.12
2019-02-06T03:51:42.011Z,24.52
2019-02-06T03:52:45.676Z,25.97
2019-02-06T03:53:49.275Z,24.15
2019-02-06T03:54:52.848Z,24.82
2019-02-06T03:55:56.477Z,25.88
2019-02-06T03:57:00.067Z,25.30
2019-02-06T03:58:03.740Z,25.60
2019-02-06T03:59:07.404Z,26.55
2019-02-06T04:00:19.353Z,25.90
2019-02-06T04:01:23.001Z,25.97
2019-02-06T04:02:26.629Z,26.40
2019-02-06T04:03:30.387Z,26.23
2019-02-06T04:04:34.465Z,26.55
2019-02-06T04:05:38.174Z,26.05
2019-02-06T04:06:53.392Z,26.62
2019-02-06T04:07:47.163Z,26.25
2019-02-06T04:08:50.840Z,27.50
2019-02-06T04:09:54.518Z,28.45
2019-02-06T04:10:58.149Z,27.85
2019-02-06T04:12:01.750Z,27.80
2019-02-06T04:13:05.533Z,27.35
2019-02-06T04:14:09.394Z,26.48
2019-02-06T04:15:13.554Z,27.50
2019-02-06T04:16:17.146Z,26.97
2019-02-06T04:17:20.948Z,28.00
2019-02-06T04:18:24.833Z,27.67
2019-02-06T04:19:28.507Z,26.93
2019-02-06T04:20:32.141Z,25.50
2019-02-06T04:21:35.731Z,26.45
2019-02-06T04:22:39.445Z,26.10
2019-02-06T04:23:43.039Z,26.62
2019-02-06T04:24:46.714Z,27.17
2019-02-06T04:25:50.392Z,24.57
2019-02-06T04:26:54.153Z,27.95
2019-02-06T04:27:57.808Z,27.15
2019-02-06T04:29:01.426Z,27.75
2019-02-06T04:30:11.168Z,26.85
2019-02-06T04:31:14.764Z,25.80
2019-02-06T04:32:18.432Z,29.42
2019-02-06T04:33:22.390Z,27.67
2019-02-06T04:34:26.121Z,29.20
2019-02-06T04:35:29.730Z,27.73
2019-02-06T04:36:33.498Z,27.32
2019-02-06T04:37:37.112Z,29.12
2019-02-06T04:38:40.768Z,27.73
2019-02-06T04:39:44.577Z,27.25
2019-02-06T04:40:48.209Z,28.35
2019-02-06T04:41:51.823Z,28.38
2019-02-06T04:42:55.499Z,27.98
2019-02-06T04:43:59.149Z,26.97
2019-02-06T04:45:02.927Z,26.17
2019-02-06T04:46:06.615Z,26.62
2019-02-06T04:47:10.582Z,27.37
2019-02-06T04:48:14.266Z,26.15
2019-02-06T04:49:17.884Z,27.05
2019-02-06T04:50:21.472Z,25.60
2019-02-06T04:51:25.105Z,24.80
2019-02-06T04:52:28.699Z,25.70
2019-02-06T04:53:32.316Z,26.30
2019-02-06T04:54:35.932Z,24.85
2019-02-06T04:55:39.542Z,24.05
2019-02-06T04:56:43.164Z,24.25
2019-02-06T04:57:46.825Z,25.50
2019-02-06T04:58:50.438Z,25.77
2019-02-06T04:59:54.048Z,24.70
2019-02-06T05:00:58.057Z,26.60
2019-02-06T05:02:01.677Z,26.80
2019-02-06T05:03:05.357Z,24.77
2019-02-06T05:04:09.041Z,26.15
2019-02-06T05:05:12.810Z,25.23
2019-02-06T05:06:16.397Z,24.85
2019-02-06T05:07:20.009Z,25.05
2019-02-06T05:08:23.699Z,24.95
2019-02-06T05:09:27.334Z,25.00
2019-02-06T05:10:30.950Z,24.35
2019-02-06T05:11:34.587Z,24.00
2019-02-06T05:12:38.221Z,24.57
2019-02-06T05:13:42.053Z,24.87
2019-02-06T05:14:46.172Z,26.10
2019-02-06T05:15:49.830Z,24.43
2019-02-06T05:16:53.538Z,25.37
2019-02-06T05:17:57.265Z,26.15
2019-02-06T05:19:00.914Z,25.50
2019-02-06T05:20:07.595Z,26.65
2019-02-06T05:21:11.345Z,27.20
2019-02-06T05:22:14.975Z,26.90
2019-02-06T05:23:18.568Z,26.33
2019-02-06T05:24:22.172Z,26.20
2019-02-06T05:25:25.804Z,25.70
2019-02-06T05:26:29.407Z,25.62
2019-02-06T05:27:33.044Z,23.27
2019-02-06T05:28:37.051Z,24.70
2019-02-06T05:29:40.682Z,24.80
2019-02-06T05:30:44.343Z,25.55
2019-02-06T05:31:47.971Z,24.30
2019-02-06T05:32:51.661Z,24.02
2019-02-06T05:33:55.310Z,22.65
2019-02-06T05:34:58.987Z,24.95
2019-02-06T05:36:02.640Z,24.15
2019-02-06T05:37:06.246Z,23.40
2019-02-06T05:38:09.857Z,23.57
2019-02-06T05:39:13.446Z,25.52
2019-02-06T05:40:17.241Z,23.92
2019-02-06T05:41:21.127Z,24.10
2019-02-06T05:42:24.720Z,23.20
2019-02-06T05:43:28.620Z,24.98
2019-02-06T05:44:32.175Z,23.70
2019-02-06T05:45:35.830Z,25.40
2019-02-06T05:46:39.421Z,25.48
2019-02-06T05:47:43.086Z,23.85
2019-02-06T05:48:49.266Z,25.43
2019-02-06T05:49:51.944Z,24.05
2019-02-06T05:50:55.570Z,24.72
2019-02-06T05:51:59.226Z,25.12
2019-02-06T05:53:02.934Z,23.65
2019-02-06T05:54:06.549Z,26.35
2019-02-06T05:55:10.597Z,24.37
2019-02-06T05:56:14.173Z,23.22
2019-02-06T05:57:17.858Z,23.65
2019-02-06T05:58:21.486Z,25.17
2019-02-06T05:59:25.087Z,23.32
2019-02-06T06:00:30.753Z,23.75
2019-02-06T06:01:34.405Z,26.30
2019-02-06T06:02:38.041Z,24.90
2019-02-06T06:03:41.681Z,23.98
2019-02-06T06:04:45.356Z,23.42
2019-02-06T06:05:49.020Z,25.77
2019-02-06T06:06:52.699Z,24.80
2019-02-06T06:07:56.287Z,25.45
2019-02-06T06:09:00.302Z,24.40
2019-02-06T06:10:06.135Z,24.98
2019-02-06T06:11:09.746Z,23.52
2019-02-06T06:12:13.350Z,24.37
2019-02-06T06:13:18.632Z,23.25
2019-02-06T06:14:22.370Z,25.70
2019-02-06T06:15:26.014Z,24.80
2019-02-06T06:16:29.643Z,23.83
2019-02-06T06:17:33.292Z,24.30
2019-02-06T06:18:36.890Z,24.75
2019-02-06T06:19:40.475Z,25.20
2019-02-06T06:20:44.131Z,25.27
2019-02-06T06:21:48.086Z,22.77
2019-02-06T06:22:52.124Z,23.47
2019-02-06T06:23:55.687Z,23.87
2019-02-06T06:24:59.347Z,24.00
2019-02-06T06:26:03.088Z,21.50
2019-02-06T06:27:06.692Z,23.60
2019-02-06T06:28:10.319Z,24.50
2019-02-06T06:29:13.944Z,25.35
2019-02-06T06:30:19.585Z,23.67
2019-02-06T06:31:23.201Z,23.32
2019-02-06T06:32:26.891Z,24.43
2019-02-06T06:33:30.597Z,23.55
2019-02-06T06:34:34.287Z,23.73
2019-02-06T06:35:38.261Z,23.83
2019-02-06T06:36:42.253Z,23.50
2019-02-06T06:37:57.568Z,24.90
2019-02-06T06:38:51.368Z,23.42
2019-02-06T06:39:55.005Z,21.40
2019-02-06T06:40:58.611Z,21.23
2019-02-06T06:42:02.276Z,21.07
2019-02-06T06:43:06.050Z,19.35
2019-02-06T06:44:09.772Z,20.40
2019-02-06T06:45:16.510Z,20.02
2019-02-06T06:46:20.112Z,18.57
2019-02-06T06:47:23.691Z,20.20
2019-02-06T06:48:27.278Z,19.60
2019-02-06T06:49:30.899Z,20.80
2019-02-06T06:50:34.758Z,18.92
2019-02-06T06:51:38.780Z,21.27
2019-02-06T06:52:45.333Z,20.92
2019-02-06T06:53:49.188Z,18.02
2019-02-06T06:54:52.774Z,18.02
2019-02-06T06:55:56.435Z,19.85
2019-02-06T06:57:00.184Z,19.67
2019-02-06T06:58:03.762Z,19.15
2019-02-06T06:59:07.352Z,18.92
2019-02-06T07:00:16.841Z,20.02
2019-02-06T07:01:20.481Z,19.32
2019-02-06T07:02:24.105Z,20.00
2019-02-06T07:03:27.766Z,18.55
2019-02-06T07:04:31.374Z,18.32
2019-02-06T07:05:34.987Z,21.07
2019-02-06T07:06:39.064Z,21.10
2019-02-06T07:07:42.784Z,24.60
2019-02-06T07:08:46.382Z,18.82
2019-02-06T07:09:49.995Z,18.45
2019-02-06T07:10:53.605Z,19.10
2019-02-06T07:11:57.238Z,19.80
2019-02-06T07:13:00.842Z,19.45
2019-02-06T07:14:04.746Z,20.05
2019-02-06T07:15:23.277Z,20.57
2019-02-06T07:16:26.974Z,19.45
2019-02-06T07:17:30.612Z,21.00
2019-02-06T07:18:34.192Z,19.37
2019-02-06T07:19:37.788Z,20.25
2019-02-06T07:20:41.380Z,24.20
2019-02-06T07:21:45.043Z,20.08
2019-02-06T07:22:48.975Z,21.52
2019-02-06T07:23:52.864Z,20.00
2019-02-06T07:24:56.500Z,19.73
2019-02-06T07:26:00.183Z,19.45
2019-02-06T07:27:04.028Z,19.85
2019-02-06T07:28:07.623Z,20.82
2019-02-06T07:29:11.225Z,19.57
2019-02-06T07:30:17.874Z,19.75
2019-02-06T07:31:21.474Z,17.32
2019-02-06T07:32:25.159Z,18.27
2019-02-06T07:33:28.764Z,18.90
2019-02-06T07:34:32.395Z,19.30
2019-02-06T07:35:36.042Z,18.87
2019-02-06T07:36:39.657Z,17.87
2019-02-06T07:37:43.569Z,18.02
2019-02-06T07:38:47.314Z,17.37
2019-02-06T07:39:51.032Z,18.45
2019-02-06T07:40:54.619Z,17.55
2019-02-06T07:41:58.207Z,17.60
2019-02-06T07:43:01.869Z,18.07
2019-02-06T07:44:05.616Z,18.25
2019-02-06T07:45:12.281Z,17.67
2019-02-06T07:46:15.995Z,16.75
2019-02-06T07:47:19.567Z,17.25
2019-02-06T07:48:23.336Z,17.02
2019-02-06T07:49:26.926Z,17.77
2019-02-06T07:50:34.688Z,18.15
2019-02-06T07:51:38.333Z,18.92
2019-02-06T07:52:42.132Z,14.80
2019-02-06T07:53:45.750Z,17.40
2019-02-06T07:54:49.361Z,17.65
2019-02-06T07:55:52.969Z,16.40
2019-02-06T07:56:56.606Z,17.50
2019-02-06T07:58:00.345Z,16.93
2019-02-06T07:59:04.066Z,17.35
2019-02-06T08:00:08.248Z,17.27
2019-02-06T08:01:11.853Z,17.75
2019-02-06T08:02:15.527Z,18.10
2019-02-06T08:03:19.172Z,17.65
2019-02-06T08:04:22.839Z,18.70
2019-02-06T08:05:26.607Z,18.23
2019-02-06T08:06:30.611Z,17.62
2019-02-06T08:07:34.241Z,17.70
2019-02-06T08:08:37.883Z,16.20
2019-02-06T08:09:41.474Z,16.55
2019-02-06T08:10:45.077Z,15.55
2019-02-06T08:11:48.743Z,18.60
2019-02-06T08:12:52.488Z,17.05
2019-02-06T08:13:56.195Z,16.15
2019-02-06T08:14:59.880Z,18.40
2019-02-06T08:16:03.645Z,18.50
2019-02-06T08:17:07.303Z,17.67
2019-02-06T08:18:10.953Z,17.55
2019-02-06T08:19:14.590Z,16.82
2019-02-06T08:20:21.312Z,16.85
2019-02-06T08:21:24.996Z,16.75
2019-02-06T08:22:28.589Z,17.02
2019-02-06T08:23:32.325Z,18.10
2019-02-06T08:24:35.959Z,17.12
2019-02-06T08:25:39.644Z,17.73
2019-02-06T08:26:43.264Z,17.12
2019-02-06T08:27:46.838Z,16.02
2019-02-06T08:28:50.445Z,17.35
2019-02-06T08:29:54.343Z,16.77
2019-02-06T08:30:58.095Z,15.28
2019-02-06T08:32:01.735Z,16.95
2019-02-06T08:33:05.469Z,17.73
2019-02-06T08:34:09.390Z,16.80
2019-02-06T08:35:13.539Z,14.50
2019-02-06T08:36:17.133Z,17.00
2019-02-06T08:37:20.831Z,16.87
2019-02-06T08:38:24.483Z,16.00
2019-02-06T08:39:28.150Z,15.85
2019-02-06T08:40:32.374Z,16.95
2019-02-06T08:41:36.136Z,17.20
2019-02-06T08:42:39.747Z,17.70
2019-02-06T08:43:43.388Z,16.07
2019-02-06T08:44:46.992Z,17.73
2019-02-06T08:45:50.572Z,16.42
2019-02-06T08:46:54.196Z,17.27
2019-02-06T08:47:57.955Z,16.82
2019-02-06T08:49:01.910Z,16.75
2019-02-06T08:50:08.917Z,17.10
2019-02-06T08:51:12.515Z,17.75
2019-02-06T08:52:16.173Z,17.07
2019-02-06T08:53:19.774Z,15.93
2019-02-06T08:54:23.431Z,16.50
2019-02-06T08:55:28.783Z,16.15
2019-02-06T08:56:32.435Z,17.73
2019-02-06T08:57:36.131Z,16.40
2019-02-06T08:58:39.726Z,22.35
2019-02-06T08:59:43.508Z,16.65
2019-02-06T09:00:47.259Z,17.48
2019-02-06T09:01:50.934Z,17.12
2019-02-06T09:02:55.301Z,16.07
2019-02-06T09:03:58.929Z,20.37
2019-02-06T09:05:02.599Z,17.48
2019-02-06T09:06:06.195Z,16.40
2019-02-06T09:07:09.855Z,16.90
2019-02-06T09:08:13.452Z,17.10
2019-02-06T09:09:17.370Z,20.60
2019-02-06T09:10:23.632Z,20.52
2019-02-06T09:11:27.219Z,15.30
2019-02-06T09:12:30.818Z,17.10
2019-02-06T09:13:34.581Z,17.00
2019-02-06T09:14:38.196Z,16.27
2019-02-06T09:15:41.850Z,17.10
2019-02-06T09:16:45.538Z,16.80
2019-02-06T09:17:49.391Z,16.30
2019-02-06T09:18:53.075Z,16.45
2019-02-06T09:19:56.662Z,17.27
2019-02-06T09:21:00.306Z,15.83
2019-02-06T09:22:03.963Z,16.05
2019-02-06T09:23:07.735Z,18.35
2019-02-06T09:24:11.394Z,17.15
2019-02-06T09:25:18.101Z,15.20
2019-02-06T09:26:21.727Z,15.28
2019-02-06T09:27:25.305Z,14.93
2019-02-06T09:28:28.975Z,15.25
2019-02-06T09:29:32.694Z,15.78
2019-02-06T09:30:36.534Z,15.18
2019-02-06T09:31:40.430Z,15.55
2019-02-06T09:32:44.003Z,16.17
2019-02-06T09:33:47.669Z,14.83
2019-02-06T09:34:51.329Z,15.95
2019-02-06T09:35:54.943Z,15.03
2019-02-06T09:36:58.593Z,15.13
2019-02-06T09:38:02.310Z,15.48
2019-02-06T09:39:11.605Z,16.05
2019-02-06T09:40:16.482Z,16.52
2019-02-06T09:41:20.221Z,16.42
2019-02-06T09:42:23.923Z,14.90
2019-02-06T09:43:27.633Z,15.75
2019-02-06T09:44:31.193Z,16.23
2019-02-06T09:45:34.893Z,16.42
2019-02-06T09:46:38.824Z,16.48
2019-02-06T09:47:42.424Z,15.43
2019-02-06T09:48:46.078Z,13.65
2019-02-06T09:49:50.023Z,16.07
2019-02-06T09:50:53.676Z,16.02
2019-02-06T09:51:57.422Z,15.55
2019-02-06T09:53:01.090Z,15.53
2019-02-06T09:54:04.800Z,16.30
2019-02-06T09:55:08.659Z,14.15
2019-02-06T09:56:12.272Z,15.30
2019-02-06T09:57:15.896Z,16.57
2019-02-06T09:58:19.537Z,15.00
2019-02-06T09:59:23.332Z,16.30
2019-02-06T10:00:30.354Z,15.70
2019-02-06T10:01:33.948Z,16.35
2019-02-06T10:02:37.638Z,16.77
2019-02-06T10:03:41.264Z,15.72
2019-02-06T10:04:44.940Z,13.90
2019-02-06T10:05:48.579Z,15.78
2019-02-06T10:06:54.382Z,16.17
2019-02-06T10:07:57.559Z,16.37
2019-02-06T10:09:01.132Z,15.98
2019-02-06T10:10:07.382Z,17.17
2019-02-06T10:11:10.962Z,16.12
2019-02-06T10:12:14.645Z,15.98
2019-02-06T10:13:18.233Z,16.30
2019-02-06T10:14:22.077Z,15.72
2019-02-06T10:15:28.298Z,15.78
2019-02-06T10:16:31.980Z,16.95
2019-02-06T10:17:36.270Z,16.55
2019-02-06T10:18:39.957Z,15.10
2019-02-06T10:19:43.681Z,14.38
2019-02-06T10:20:48.850Z,15.90
2019-02-06T10:21:53.664Z,14.23
2019-02-06T10:22:57.466Z,16.62
2019-02-06T10:24:01.047Z,15.55
2019-02-06T10:25:05.915Z,19.27
2019-02-06T10:26:09.571Z,19.52
2019-02-06T10:27:13.300Z,16.07
2019-02-06T10:28:17.020Z,16.55
2019-02-06T10:29:20.627Z,16.02
2019-02-06T10:30:33.344Z,15.85
2019-02-06T10:31:37.209Z,14.07
2019-02-06T10:32:41.248Z,16.87
2019-02-06T10:33:45.020Z,16.27
2019-02-06T10:34:48.618Z,14.85
2019-02-06T10:35:52.622Z,17.00
2019-02-06T10:36:56.315Z,15.30
2019-02-06T10:38:00.011Z,16.15
2019-02-06T10:39:05.243Z,14.65
2019-02-06T10:40:11.176Z,15.90
2019-02-06T10:41:14.761Z,15.60
2019-02-06T10:42:18.367Z,13.22
2019-02-06T10:43:31.749Z,14.50
2019-02-06T10:44:27.241Z,14.95
2019-02-06T10:45:30.925Z,15.63
2019-02-06T10:46:34.813Z,11.63
2019-02-06T10:47:38.799Z,14.87
2019-02-06T10:48:43.916Z,13.53
2019-02-06T10:49:47.551Z,14.35
2019-02-06T10:50:51.420Z,15.03
2019-02-06T10:51:55.208Z,15.78
2019-02-06T10:52:59.080Z,14.45
2019-02-06T10:54:02.816Z,14.75
2019-02-06T10:55:07.939Z,14.68
2019-02-06T10:56:11.637Z,15.83
2019-02-06T10:57:15.364Z,15.30
2019-02-06T10:58:19.138Z,16.05
2019-02-06T10:59:22.894Z,17.05
2019-02-06T11:00:31.588Z,17.02
2019-02-06T11:01:35.453Z,15.72
2019-02-06T11:02:39.316Z,16.52
2019-02-06T11:03:43.008Z,16.62
2019-02-06T11:04:46.615Z,18.40
2019-02-06T11:05:50.359Z,16.23
2019-02-06T11:06:54.051Z,15.13
2019-02-06T11:07:57.761Z,15.53
2019-02-06T11:09:01.385Z,16.25
2019-02-06T11:10:08.069Z,18.32
2019-02-06T11:11:11.800Z,28.62
2019-02-06T11:12:15.444Z,20.05
2019-02-06T11:13:19.112Z,20.02
2019-02-06T11:14:22.733Z,16.25
2019-02-06T11:15:27.418Z,14.15
2019-02-06T11:16:31.298Z,17.32
2019-02-06T11:17:35.263Z,17.87
2019-02-06T11:18:38.970Z,17.42
2019-02-06T11:19:43.271Z,17.50
2019-02-06T11:20:47.157Z,16.65
2019-02-06T11:21:50.773Z,17.70
2019-02-06T11:22:54.414Z,16.42
2019-02-06T11:23:58.073Z,15.98
2019-02-06T11:25:04.583Z,16.23
2019-02-06T11:26:07.110Z,13.93
2019-02-06T11:27:10.772Z,16.97
2019-02-06T11:28:14.501Z,15.03
2019-02-06T11:29:18.185Z,16.93
2019-02-06T11:30:27.416Z,15.68
2019-02-06T11:31:31.129Z,15.10
2019-02-06T11:32:35.019Z,14.90
2019-02-06T11:33:38.621Z,15.35
2019-02-06T11:34:42.209Z,16.85
2019-02-06T11:35:45.981Z,15.20
2019-02-06T11:36:49.585Z,16.10
2019-02-06T11:37:53.234Z,15.28
2019-02-06T11:38:56.931Z,15.18
2019-02-06T11:40:00.516Z,14.53
2019-02-06T11:41:04.213Z,16.00
2019-02-06T11:42:07.816Z,17.50
2019-02-06T11:43:11.468Z,15.13
2019-02-06T11:44:15.145Z,17.25
2019-02-06T11:45:27.853Z,16.73
2019-02-06T11:46:31.478Z,15.45
2019-02-06T11:47:35.194Z,17.82
2019-02-06T11:48:39.138Z,16.80
2019-02-06T11:49:42.914Z,16.30
2019-02-06T11:50:46.589Z,16.00
2019-02-06T11:51:50.186Z,15.40
2019-02-06T11:52:53.949Z,15.78
2019-02-06T11:53:57.713Z,16.50
2019-02-06T11:55:01.322Z,15.65
2019-02-06T11:56:05.056Z,15.83
2019-02-06T11:57:08.682Z,15.63
2019-02-06T11:58:12.434Z,17.95
2019-02-06T11:59:16.025Z,15.72
2019-02-06T12:00:23.593Z,15.98
2019-02-06T12:01:28.090Z,14.58
2019-02-06T12:02:37.301Z,16.80
2019-02-06T12:03:36.992Z,15.80
2019-02-06T12:04:40.666Z,14.55
2019-02-06T12:05:44.366Z,15.10
2019-02-06T12:06:48.066Z,15.95
2019-02-06T12:07:51.731Z,15.95
2019-02-06T12:08:55.417Z,15.45
2019-02-06T12:10:09.386Z,15.48
2019-02-06T12:11:06.229Z,15.93
2019-02-06T12:12:10.059Z,14.95
2019-02-06T12:13:13.809Z,15.93
2019-02-06T12:14:17.491Z,14.93
2019-02-06T12:15:21.415Z,15.20
2019-02-06T12:16:25.207Z,14.58
2019-02-06T12:17:29.124Z,13.95
2019-02-06T12:18:33.226Z,14.78
2019-02-06T12:19:36.836Z,15.00
2019-02-06T12:20:40.474Z,14.25
2019-02-06T12:21:44.058Z,15.90
2019-02-06T12:22:47.679Z,14.75
2019-02-06T12:23:51.291Z,14.60
2019-02-06T12:24:54.934Z,14.38
2019-02-06T12:25:58.677Z,14.60
2019-02-06T12:27:02.294Z,14.20
2019-02-06T12:28:06.131Z,14.68
2019-02-06T12:29:09.715Z,14.73
2019-02-06T12:30:16.460Z,15.75
2019-02-06T12:31:20.522Z,14.40
2019-02-06T12:32:24.472Z,14.38
2019-02-06T12:33:28.108Z,16.07
2019-02-06T12:34:31.764Z,14.60
2019-02-06T12:35:35.500Z,15.60
2019-02-06T12:36:39.092Z,13.78
2019-02-06T12:37:42.707Z,14.20
2019-02-06T12:38:53.442Z,14.05
2019-02-06T12:39:51.671Z,13.75
2019-02-06T12:40:55.434Z,13.55
2019-02-06T12:41:59.084Z,14.83
2019-02-06T12:43:03.136Z,13.40
2019-02-06T12:44:07.088Z,13.13
2019-02-06T12:45:16.705Z,13.13
2019-02-06T12:46:20.346Z,13.50
2019-02-06T12:47:26.810Z,12.93
2019-02-06T12:48:29.215Z,13.85
2019-02-06T12:49:32.866Z,13.32
2019-02-06T12:50:36.496Z,12.88
2019-02-06T12:51:40.113Z,14.05
2019-02-06T12:52:43.759Z,14.33
2019-02-06T12:53:47.452Z,13.43
2019-02-06T12:54:51.179Z,12.70
2019-02-06T12:55:54.776Z,13.70
2019-02-06T12:56:58.468Z,14.13
2019-02-06T12:58:02.353Z,15.58
2019-02-06T12:59:06.373Z,14.43
2019-02-06T13:00:13.096Z,12.80
2019-02-06T13:01:16.772Z,15.25
2019-02-06T13:02:20.463Z,15.78
2019-02-06T13:03:24.089Z,14.95
2019-02-06T13:04:27.701Z,14.20
2019-02-06T13:05:31.652Z,14.20
2019-02-06T13:06:36.131Z,14.87
2019-02-06T13:07:39.800Z,14.10
2019-02-06T13:08:43.438Z,13.98
2019-02-06T13:09:47.042Z,15.00
2019-02-06T13:10:50.697Z,14.30
2019-02-06T13:11:54.383Z,15.38
2019-02-06T13:12:58.354Z,14.65
2019-02-06T13:14:01.944Z,15.35
2019-02-06T13:15:08.606Z,14.70
2019-02-06T13:16:12.232Z,15.90
2019-02-06T13:17:15.878Z,15.20
2019-02-06T13:18:19.536Z,13.58
2019-02-06T13:19:23.131Z,14.33
2019-02-06T13:20:31.907Z,14.65
2019-02-06T13:21:35.547Z,13.32
2019-02-06T13:22:39.199Z,14.03
2019-02-06T13:23:42.770Z,13.15
2019-02-06T13:24:46.411Z,13.03
2019-02-06T13:25:50.006Z,11.88
2019-02-06T13:26:53.659Z,12.58
2019-02-06T13:27:57.666Z,13.62
2019-02-06T13:29:01.295Z,12.55
2019-02-06T13:30:10.779Z,13.85
2019-02-06T13:31:14.440Z,13.78
2019-02-06T13:32:18.119Z,13.10
2019-02-06T13:33:21.725Z,17.48
2019-02-06T13:34:25.431Z,13.48
2019-02-06T13:35:29.149Z,14.50
2019-02-06T13:36:32.715Z,14.05
2019-02-06T13:37:36.419Z,13.05
2019-02-06T13:38:40.090Z,13.15
2019-02-06T13:39:43.778Z,11.60
2019-02-06T13:40:47.562Z,13.38
2019-02-06T13:41:51.129Z,11.93
2019-02-06T13:42:54.987Z,11.93
2019-02-06T13:43:58.577Z,13.55
2019-02-06T13:45:02.173Z,11.50